Time;durP1;ratioP1;P1;durP2;ratioP2;P2;SDS_P1;SDS_P2;PMS_P1;PMS_P2;Temp;Humidity;BMP_temperature;BMP_pressure;BME280_temperature;BME280_humidity;BME280_pressure;Samples;Min_cycle;Max_cycle;Signal;HPM_P1;HPM_P2
2021/06/30 00:01:06;;;;;;;;;;;24.50;62.20;;;;;;5018866;28;20290;-63
2021/06/30 00:03:32;;;;;;;;;;;24.40;62.10;;;;;;5027471;28;19916;-63
2021/06/30 00:05:57;;;;;;;;;;;24.50;62.20;;;;;;5048387;28;19944;-63
2021/06/30 00:08:23;;;;;;;;;;;24.50;62.20;;;;;;5038489;28;19924;-63
2021/06/30 00:10:48;;;;;;;;;;;24.50;62.10;;;;;;5023878;28;20023;-63
2021/06/30 00:13:14;;;;;;;;;;;24.50;62.00;;;;;;5036236;28;20445;-62
2021/06/30 00:15:39;;;;;;;;;;;24.40;62.10;;;;;;5040837;28;19917;-63
2021/06/30 00:18:05;;;;;;;;;;;24.40;62.00;;;;;;5039271;28;19917;-62
2021/06/30 00:20:30;;;;;;;;;;;24.40;62.10;;;;;;5023840;28;19925;-61
2021/06/30 00:22:56;;;;;;;;;;;24.40;61.90;;;;;;5020074;28;19921;-63
2021/06/30 00:25:21;;;;;;;;;;;24.40;61.90;;;;;;5039669;28;19920;-63
2021/06/30 00:27:47;;;;;;;;;;;24.40;62.00;;;;;;5022492;28;20267;-63
2021/06/30 00:30:13;;;;;;;;;;;24.40;61.90;;;;;;5021805;28;19921;-63
2021/06/30 00:32:38;;;;;;;;;;;24.40;61.80;;;;;;5025846;28;20234;-62
2021/06/30 00:35:04;;;;;;;;;;;24.40;61.90;;;;;;5028569;28;20352;-62
2021/06/30 00:37:30;;;;;;;;;;;24.40;61.80;;;;;;5017296;28;20095;-62
2021/06/30 00:39:55;;;;;;;;;;;24.40;61.80;;;;;;5038904;28;19921;-62
2021/06/30 00:42:20;;;;;;;;;;;24.40;61.70;;;;;;5042607;28;19921;-63
2021/06/30 00:44:46;;;;;;;;;;;24.40;61.70;;;;;;5039463;28;20164;-63
2021/06/30 00:47:11;;;;;;;;;;;24.40;61.70;;;;;;5044634;28;19917;-61
2021/06/30 00:49:37;;;;;;;;;;;24.40;61.80;;;;;;5019485;28;19982;-62
2021/06/30 00:52:02;;;;;;;;;;;24.40;61.70;;;;;;5038981;28;20267;-62
2021/06/30 00:54:28;;;;;;;;;;;24.40;61.70;;;;;;5022963;22;20476;-69
2021/06/30 00:56:53;;;;;;;;;;;24.40;61.70;;;;;;4987982;28;19922;-69
2021/06/30 00:59:19;;;;;;;;;;;24.40;61.70;;;;;;4994084;28;20470;-70
2021/06/30 01:01:44;;;;;;;;;;;24.30;61.60;;;;;;4998448;28;19928;-68
2021/06/30 01:04:10;;;;;;;;;;;24.40;61.70;;;;;;4966806;28;20025;-70
2021/06/30 01:06:35;;;;;;;;;;;24.30;61.60;;;;;;4976530;28;19961;-69
2021/06/30 01:09:03;;;;;;;;;;;24.40;61.70;;;;;;4983751;28;20304;-69
2021/06/30 01:11:29;;;;;;;;;;;24.30;61.40;;;;;;4985609;28;19968;-68
2021/06/30 01:13:54;;;;;;;;;;;24.40;61.60;;;;;;4980440;28;20357;-69
2021/06/30 01:16:20;;;;;;;;;;;24.40;61.60;;;;;;4982154;28;20415;-71
2021/06/30 01:18:45;;;;;;;;;;;24.30;61.50;;;;;;4979409;28;19921;-68
2021/06/30 01:21:11;;;;;;;;;;;24.30;61.40;;;;;;4985338;28;19922;-72
2021/06/30 01:23:36;;;;;;;;;;;24.30;61.50;;;;;;4969919;28;19925;-71
2021/06/30 01:26:02;;;;;;;;;;;24.30;61.50;;;;;;4993680;28;20548;-71
2021/06/30 01:28:28;;;;;;;;;;;24.30;61.40;;;;;;4981469;28;19922;-69
2021/06/30 01:30:53;;;;;;;;;;;24.30;61.50;;;;;;4984960;28;19922;-69
2021/06/30 01:33:19;;;;;;;;;;;24.30;61.40;;;;;;4990874;28;19934;-67
2021/06/30 01:35:44;;;;;;;;;;;24.30;61.40;;;;;;4961735;28;20028;-69
2021/06/30 01:38:10;;;;;;;;;;;24.30;61.50;;;;;;4998408;28;19922;-70
2021/06/30 01:40:35;;;;;;;;;;;24.30;61.50;;;;;;4986333;28;19941;-70
2021/06/30 01:43:01;;;;;;;;;;;24.30;61.40;;;;;;4980526;28;20308;-70
2021/06/30 01:45:27;;;;;;;;;;;24.30;61.40;;;;;;4983297;28;19922;-67
2021/06/30 01:47:52;;;;;;;;;;;24.30;61.20;;;;;;5003751;28;19918;-69
2021/06/30 01:50:18;;;;;;;;;;;24.30;61.20;;;;;;4993107;28;20359;-70
2021/06/30 01:52:43;;;;;;;;;;;24.30;61.20;;;;;;4984868;28;20453;-69
2021/06/30 01:55:09;;;;;;;;;;;24.30;61.20;;;;;;4969615;28;19968;-70
2021/06/30 01:57:41;;;;;;;;;;;24.30;61.10;;;;;;4984206;28;19924;-70
2021/06/30 02:00:07;;;;;;;;;;;24.30;61.10;;;;;;4977789;28;19980;-70
2021/06/30 02:02:33;;;;;;;;;;;24.30;61.10;;;;;;4971061;28;20424;-69
2021/06/30 02:04:59;;;;;;;;;;;24.30;61.10;;;;;;4978756;28;19918;-68
2021/06/30 02:07:25;;;;;;;;;;;24.20;61.00;;;;;;4970815;28;20299;-69
2021/06/30 02:09:50;;;;;;;;;;;24.30;61.00;;;;;;4976518;28;19922;-69
2021/06/30 02:12:15;;;;;;;;;;;24.30;61.10;;;;;;4988721;28;19969;-69
2021/06/30 02:14:41;;;;;;;;;;;24.30;60.90;;;;;;4978737;28;19922;-68
2021/06/30 02:17:06;;;;;;;;;;;24.20;60.80;;;;;;4979243;28;19918;-68
2021/06/30 02:19:32;;;;;;;;;;;24.20;60.90;;;;;;4989307;28;20274;-69
2021/06/30 02:21:57;;;;;;;;;;;24.30;61.60;;;;;;4985717;28;19925;-66
2021/06/30 02:24:23;;;;;;;;;;;24.30;60.80;;;;;;4997273;28;19951;-67
2021/06/30 02:26:48;;;;;;;;;;;24.20;60.70;;;;;;4984916;28;19956;-69
2021/06/30 02:29:14;;;;;;;;;;;24.20;60.70;;;;;;4999401;28;19922;-70
2021/06/30 02:31:39;;;;;;;;;;;24.20;60.80;;;;;;5000581;28;19918;-71
2021/06/30 02:34:04;;;;;;;;;;;24.20;60.80;;;;;;5002543;28;19928;-68
2021/06/30 02:36:30;;;;;;;;;;;24.20;60.70;;;;;;4994763;28;20402;-67
2021/06/30 02:38:56;;;;;;;;;;;24.20;60.80;;;;;;5001947;28;19923;-71
2021/06/30 02:41:22;;;;;;;;;;;24.20;60.90;;;;;;5002346;28;19922;-70
2021/06/30 02:43:47;;;;;;;;;;;24.20;60.60;;;;;;4999154;28;19964;-70
2021/06/30 02:46:13;;;;;;;;;;;24.20;60.70;;;;;;4998127;28;19925;-71
2021/06/30 02:48:38;;;;;;;;;;;24.20;60.60;;;;;;4990018;28;19925;-71
2021/06/30 02:51:04;;;;;;;;;;;24.20;60.60;;;;;;4997532;28;20419;-70
2021/06/30 02:53:29;;;;;;;;;;;24.20;60.70;;;;;;5002355;28;19926;-71
2021/06/30 02:55:54;;;;;;;;;;;24.20;60.50;;;;;;4988933;28;19922;-70
2021/06/30 02:58:20;;;;;;;;;;;24.10;60.40;;;;;;4998641;28;19971;-70
2021/06/30 03:00:45;;;;;;;;;;;24.10;60.50;;;;;;4984898;28;19929;-69
2021/06/30 03:03:11;;;;;;;;;;;24.20;60.50;;;;;;4981555;28;20431;-69
2021/06/30 03:05:36;;;;;;;;;;;24.10;60.30;;;;;;4979146;28;19922;-69
2021/06/30 03:08:02;;;;;;;;;;;24.20;60.40;;;;;;4980770;28;20020;-69
2021/06/30 03:10:27;;;;;;;;;;;24.10;60.30;;;;;;4979263;28;19926;-69
2021/06/30 03:12:53;;;;;;;;;;;24.10;60.20;;;;;;4978609;28;19918;-70
2021/06/30 03:15:18;;;;;;;;;;;24.10;60.20;;;;;;4977760;28;19918;-69
2021/06/30 03:17:44;;;;;;;;;;;24.10;60.30;;;;;;4985189;28;19972;-70
2021/06/30 03:20:10;;;;;;;;;;;24.10;60.20;;;;;;4983876;28;19921;-70
2021/06/30 03:22:38;;;;;;;;;;;24.10;60.20;;;;;;4979063;28;20521;-69
2021/06/30 03:25:05;;;;;;;;;;;24.10;60.20;;;;;;4976392;28;20025;-70
2021/06/30 03:27:30;;;;;;;;;;;24.10;60.20;;;;;;4965507;28;20393;-70
2021/06/30 03:29:55;;;;;;;;;;;24.10;60.10;;;;;;4984296;28;19924;-68
2021/06/30 03:32:21;;;;;;;;;;;24.10;60.10;;;;;;4973061;28;20447;-71
2021/06/30 03:34:46;;;;;;;;;;;24.10;60.00;;;;;;4990258;28;19921;-70
2021/06/30 03:37:12;;;;;;;;;;;24.10;60.00;;;;;;4978902;28;19918;-69
2021/06/30 03:39:37;;;;;;;;;;;24.10;60.00;;;;;;4978554;28;19972;-68
2021/06/30 03:42:03;;;;;;;;;;;24.00;60.00;;;;;;4998436;28;20303;-70
2021/06/30 03:44:28;;;;;;;;;;;24.00;60.00;;;;;;4988132;28;19922;-68
2021/06/30 03:46:54;;;;;;;;;;;24.00;60.00;;;;;;4976476;28;19917;-68
2021/06/30 03:49:19;;;;;;;;;;;24.00;60.00;;;;;;4972404;28;19918;-71
2021/06/30 03:51:45;;;;;;;;;;;24.00;59.90;;;;;;4972796;28;19917;-68
2021/06/30 03:54:10;;;;;;;;;;;24.00;60.00;;;;;;4968565;28;20315;-70
2021/06/30 03:56:35;;;;;;;;;;;24.00;59.90;;;;;;4978840;28;19926;-70
2021/06/30 03:59:01;;;;;;;;;;;24.00;59.80;;;;;;4975275;28;20341;-69
2021/06/30 04:01:26;;;;;;;;;;;24.00;59.80;;;;;;4972929;28;19933;-69
2021/06/30 04:03:55;;;;;;;;;;;24.00;59.80;;;;;;4974403;28;19947;-71
2021/06/30 04:06:21;;;;;;;;;;;24.00;59.80;;;;;;4977419;28;19926;-69
2021/06/30 04:08:47;;;;;;;;;;;24.00;59.80;;;;;;4977523;28;19925;-68
2021/06/30 04:11:12;;;;;;;;;;;24.00;59.90;;;;;;4978076;28;19925;-72
2021/06/30 04:13:37;;;;;;;;;;;24.00;59.90;;;;;;4984124;28;19928;-69
2021/06/30 04:16:03;;;;;;;;;;;24.00;59.70;;;;;;4978793;28;19918;-69
2021/06/30 04:18:28;;;;;;;;;;;24.00;59.70;;;;;;4972661;28;20367;-70
2021/06/30 04:20:54;;;;;;;;;;;24.00;59.60;;;;;;4979066;28;19930;-69
2021/06/30 04:23:19;;;;;;;;;;;24.00;59.70;;;;;;4964125;28;19945;-69
2021/06/30 04:25:47;;;;;;;;;;;23.90;59.70;;;;;;4974925;28;19922;-70
2021/06/30 04:28:13;;;;;;;;;;;23.90;59.80;;;;;;4979303;28;20006;-69
2021/06/30 04:30:39;;;;;;;;;;;23.90;59.80;;;;;;4982561;28;20018;-68
2021/06/30 04:33:04;;;;;;;;;;;23.90;59.80;;;;;;4980193;28;19957;-68
2021/06/30 04:35:30;;;;;;;;;;;23.90;59.40;;;;;;4982544;28;20359;-69
2021/06/30 04:37:55;;;;;;;;;;;23.90;58.70;;;;;;4991755;28;20334;-70
2021/06/30 04:40:20;;;;;;;;;;;23.80;58.50;;;;;;4971109;28;20458;-69
2021/06/30 04:42:46;;;;;;;;;;;23.80;58.50;;;;;;4971269;28;19925;-69
2021/06/30 04:45:11;;;;;;;;;;;23.80;58.70;;;;;;4975588;28;19960;-69
2021/06/30 04:47:37;;;;;;;;;;;23.80;58.60;;;;;;4995411;28;20314;-71
2021/06/30 04:50:02;;;;;;;;;;;23.80;58.60;;;;;;4987011;28;19918;-68
2021/06/30 04:52:28;;;;;;;;;;;23.80;58.70;;;;;;4969871;28;20017;-70
2021/06/30 04:54:53;;;;;;;;;;;23.90;58.60;;;;;;4979663;28;19993;-70
2021/06/30 04:57:19;;;;;;;;;;;23.90;58.80;;;;;;4980748;28;19929;-70
2021/06/30 04:59:44;;;;;;;;;;;23.80;59.00;;;;;;4986106;28;19971;-69
2021/06/30 05:02:10;;;;;;;;;;;23.80;59.10;;;;;;4987352;28;19956;-69
2021/06/30 05:04:35;;;;;;;;;;;23.80;59.10;;;;;;4978244;28;19918;-69
2021/06/30 05:07:01;;;;;;;;;;;23.80;59.10;;;;;;4976035;28;19918;-69
2021/06/30 05:09:26;;;;;;;;;;;23.80;59.10;;;;;;4984808;28;20638;-69
2021/06/30 05:11:52;;;;;;;;;;;23.80;59.10;;;;;;4992372;28;19991;-69
2021/06/30 05:14:17;;;;;;;;;;;23.80;58.90;;;;;;4971539;28;19928;-69
2021/06/30 05:16:43;;;;;;;;;;;23.80;59.00;;;;;;4967439;28;19922;-70
2021/06/30 05:19:09;;;;;;;;;;;23.80;59.00;;;;;;4987032;28;20269;-70
2021/06/30 05:21:34;;;;;;;;;;;23.80;59.00;;;;;;4977538;28;19922;-69
2021/06/30 05:24:00;;;;;;;;;;;23.70;58.80;;;;;;4987491;28;19933;-72
2021/06/30 05:26:25;;;;;;;;;;;23.80;58.80;;;;;;4976908;28;19925;-68
2021/06/30 05:28:50;;;;;;;;;;;23.80;59.10;;;;;;4964845;28;19925;-70
2021/06/30 05:31:16;;;;;;;;;;;23.80;59.10;;;;;;4977004;28;19920;-70
2021/06/30 05:33:41;;;;;;;;;;;23.70;59.30;;;;;;4981567;28;19917;-69
2021/06/30 05:36:07;;;;;;;;;;;23.70;59.40;;;;;;4978220;28;19922;-71
2021/06/30 05:38:33;;;;;;;;;;;23.70;59.10;;;;;;4959030;28;19918;-72
2021/06/30 05:40:59;;;;;;;;;;;23.60;59.20;;;;;;4981891;28;19945;-70
2021/06/30 05:43:24;;;;;;;;;;;23.60;59.10;;;;;;4991716;28;19999;-70
2021/06/30 05:45:50;;;;;;;;;;;23.60;59.10;;;;;;4994254;28;19902;-71
2021/06/30 05:48:15;;;;;;;;;;;23.70;59.30;;;;;;4988597;28;19914;-70
2021/06/30 05:50:40;;;;;;;;;;;23.60;58.90;;;;;;4975774;28;19918;-71
2021/06/30 05:53:06;;;;;;;;;;;23.60;59.00;;;;;;4982780;28;20557;-70
2021/06/30 05:55:32;;;;;;;;;;;23.60;58.90;;;;;;4979384;28;19922;-69
2021/06/30 05:57:57;;;;;;;;;;;23.60;59.10;;;;;;4984230;28;19917;-70
2021/06/30 06:00:22;;;;;;;;;;;23.60;59.20;;;;;;4978467;28;19921;-71
2021/06/30 06:02:48;;;;;;;;;;;23.50;59.00;;;;;;4979396;28;20392;-70
2021/06/30 06:05:14;;;;;;;;;;;23.50;58.90;;;;;;4984219;28;19941;-70
2021/06/30 06:07:39;;;;;;;;;;;23.40;58.50;;;;;;4969068;28;19918;-71
2021/06/30 06:10:05;;;;;;;;;;;23.40;58.50;;;;;;4970809;28;19925;-70
2021/06/30 06:12:31;;;;;;;;;;;23.30;58.80;;;;;;4992786;28;20386;-71
2021/06/30 06:14:56;;;;;;;;;;;23.20;58.70;;;;;;4980233;28;19913;-71
2021/06/30 06:17:22;;;;;;;;;;;23.20;58.50;;;;;;4983744;28;19918;-70
2021/06/30 06:19:47;;;;;;;;;;;23.20;58.70;;;;;;4969721;28;19915;-71
2021/06/30 06:22:12;;;;;;;;;;;23.10;58.70;;;;;;4992357;28;21730;-71
2021/06/30 06:24:38;;;;;;;;;;;23.10;59.20;;;;;;4994802;28;19956;-71
2021/06/30 06:27:04;;;;;;;;;;;23.00;59.50;;;;;;4986201;28;20048;-70
2021/06/30 06:29:30;;;;;;;;;;;23.10;59.60;;;;;;4968464;28;20255;-71
2021/06/30 06:31:55;;;;;;;;;;;23.20;59.60;;;;;;4968305;28;19918;-67
2021/06/30 06:34:22;;;;;;;;;;;23.20;59.40;;;;;;4983744;28;19929;-68
2021/06/30 06:36:47;;;;;;;;;;;23.20;59.30;;;;;;4990609;28;20363;-68
2021/06/30 06:39:13;;;;;;;;;;;23.20;59.40;;;;;;4983958;28;19914;-68
2021/06/30 06:41:38;;;;;;;;;;;23.10;59.20;;;;;;4973400;28;19926;-69
2021/06/30 06:44:04;;;;;;;;;;;23.10;59.20;;;;;;4979683;28;19914;-67
2021/06/30 06:46:29;;;;;;;;;;;23.10;58.80;;;;;;4977183;28;19918;-68
2021/06/30 06:48:55;;;;;;;;;;;23.00;59.20;;;;;;4993565;28;20400;-68
2021/06/30 06:51:20;;;;;;;;;;;23.00;59.20;;;;;;4978055;28;19921;-68
2021/06/30 06:53:46;;;;;;;;;;;23.00;59.00;;;;;;4988665;28;20400;-67
2021/06/30 06:56:12;;;;;;;;;;;23.00;59.00;;;;;;5003891;28;19918;-69
2021/06/30 06:58:37;;;;;;;;;;;23.00;59.20;;;;;;4970772;28;20328;-67
2021/06/30 07:01:04;;;;;;;;;;;23.00;59.00;;;;;;4971631;28;19924;-67
2021/06/30 07:03:30;;;;;;;;;;;23.00;59.10;;;;;;4969129;28;19928;-68
2021/06/30 07:05:55;;;;;;;;;;;23.00;59.10;;;;;;4989013;28;19914;-67
2021/06/30 07:08:21;;;;;;;;;;;23.00;59.00;;;;;;4984966;28;20436;-67
2021/06/30 07:10:46;;;;;;;;;;;23.00;59.10;;;;;;4971689;28;19915;-67
2021/06/30 07:13:12;;;;;;;;;;;22.90;59.00;;;;;;4971661;28;19914;-66
2021/06/30 07:15:41;;;;;;;;;;;23.00;59.20;;;;;;4997862;28;19921;-67
2021/06/30 07:18:10;;;;;;;;;;;23.00;59.20;;;;;;4998199;28;19921;-67
2021/06/30 07:20:35;;;;;;;;;;;23.00;59.10;;;;;;4970680;28;20025;-68
2021/06/30 07:23:01;;;;;;;;;;;23.00;59.00;;;;;;4994859;28;20388;-68
2021/06/30 07:25:26;;;;;;;;;;;22.90;58.70;;;;;;4993815;28;19976;-66
2021/06/30 07:27:52;;;;;;;;;;;22.90;59.10;;;;;;4978314;28;19965;-66
2021/06/30 07:30:17;;;;;;;;;;;22.90;59.20;;;;;;4967632;28;19914;-68
2021/06/30 07:32:43;;;;;;;;;;;22.90;59.20;;;;;;4967043;28;20378;-68
2021/06/30 07:35:08;;;;;;;;;;;22.90;59.10;;;;;;4990520;28;20390;-66
2021/06/30 07:37:34;;;;;;;;;;;22.90;59.30;;;;;;4968611;28;19918;-66
2021/06/30 07:39:59;;;;;;;;;;;22.90;59.60;;;;;;4973265;28;19920;-67
2021/06/30 07:42:25;;;;;;;;;;;22.90;59.70;;;;;;4985845;28;20273;-67
2021/06/30 07:44:50;;;;;;;;;;;22.90;59.50;;;;;;4984086;28;19921;-67
2021/06/30 07:47:15;;;;;;;;;;;22.90;59.10;;;;;;4975645;28;19918;-67
2021/06/30 07:49:41;;;;;;;;;;;22.90;59.10;;;;;;4986408;28;19945;-67
2021/06/30 07:52:06;;;;;;;;;;;22.80;59.20;;;;;;4990574;28;19936;-66
2021/06/30 07:54:33;;;;;;;;;;;22.90;59.30;;;;;;4996900;28;19921;-67
2021/06/30 07:56:59;;;;;;;;;;;22.90;59.60;;;;;;4987915;28;19914;-68
2021/06/30 07:59:24;;;;;;;;;;;22.90;59.40;;;;;;4982911;28;19914;-68
2021/06/30 08:01:49;;;;;;;;;;;22.90;59.20;;;;;;4968265;28;20021;-67
2021/06/30 08:04:15;;;;;;;;;;;22.90;59.20;;;;;;4993937;28;19928;-67
2021/06/30 08:06:40;;;;;;;;;;;22.90;59.50;;;;;;4990597;28;19973;-69
2021/06/30 08:09:06;;;;;;;;;;;23.00;60.20;;;;;;4971902;28;20002;-69
2021/06/30 08:11:31;;;;;;;;;;;23.10;60.30;;;;;;4974234;28;20016;-68
2021/06/30 08:13:57;;;;;;;;;;;23.10;60.20;;;;;;4968130;28;20037;-68
2021/06/30 08:16:22;;;;;;;;;;;23.20;59.80;;;;;;4970585;28;19921;-69
2021/06/30 08:18:48;;;;;;;;;;;23.20;59.70;;;;;;4979377;28;20265;-69
2021/06/30 08:21:13;;;;;;;;;;;23.20;59.30;;;;;;4985505;28;20004;-69
2021/06/30 08:23:39;;;;;;;;;;;23.20;59.20;;;;;;4970864;28;19922;-69
2021/06/30 08:26:07;;;;;;;;;;;23.20;58.90;;;;;;4974036;28;19921;-70
2021/06/30 08:28:33;;;;;;;;;;;23.10;58.80;;;;;;4988519;28;19992;-69
2021/06/30 08:30:58;;;;;;;;;;;23.20;58.80;;;;;;4989342;28;20398;-70
2021/06/30 08:33:24;;;;;;;;;;;23.10;58.70;;;;;;4970169;28;19970;-70
2021/06/30 08:35:49;;;;;;;;;;;23.20;58.80;;;;;;4966491;28;19940;-70
2021/06/30 08:38:15;;;;;;;;;;;23.20;58.60;;;;;;4990931;28;19921;-70
2021/06/30 08:40:40;;;;;;;;;;;23.20;58.80;;;;;;4979903;28;19918;-70
2021/06/30 08:43:07;;;;;;;;;;;23.20;58.90;;;;;;4967921;28;19925;-69
2021/06/30 08:45:32;;;;;;;;;;;23.10;58.60;;;;;;4970466;28;19914;-69
2021/06/30 08:47:57;;;;;;;;;;;23.20;58.80;;;;;;4987799;28;20407;-68
2021/06/30 08:50:23;;;;;;;;;;;23.20;58.80;;;;;;4991807;28;19948;-67
2021/06/30 08:52:48;;;;;;;;;;;23.20;58.80;;;;;;4989626;28;19988;-68
2021/06/30 08:55:16;;;;;;;;;;;23.20;58.70;;;;;;4968623;28;19930;-68
2021/06/30 08:57:42;;;;;;;;;;;23.20;58.70;;;;;;4980257;28;20383;-69
2021/06/30 09:00:08;;;;;;;;;;;23.20;59.00;;;;;;4973216;28;20004;-69
2021/06/30 09:02:34;;;;;;;;;;;23.20;58.90;;;;;;4987320;28;20004;-70
2021/06/30 09:05:11;;;;;;;;;;;23.20;59.10;;;;;;4994748;28;20183;-69
2021/06/30 09:07:37;;;;;;;;;;;23.20;59.10;;;;;;4981378;28;19953;-68
2021/06/30 09:10:02;;;;;;;;;;;23.20;59.10;;;;;;4978797;28;19913;-69
2021/06/30 09:12:37;;;;;;;;;;;23.20;59.20;;;;;;4965610;28;20364;-69
2021/06/30 09:15:16;;;;;;;;;;;23.20;59.30;;;;;;4965617;28;19976;-68
2021/06/30 09:17:43;;;;;;;;;;;23.20;59.30;;;;;;4991791;28;19914;-71
2021/06/30 09:20:08;;;;;;;;;;;23.20;59.40;;;;;;4976566;28;19937;-70
2021/06/30 09:22:51;;;;;;;;;;;23.20;59.40;;;;;;4996922;28;19917;-70
2021/06/30 09:25:26;;;;;;;;;;;23.20;59.40;;;;;;4992475;28;19922;-70
2021/06/30 09:27:51;;;;;;;;;;;23.20;59.50;;;;;;4976370;28;20005;-67
2021/06/30 09:30:17;;;;;;;;;;;23.20;59.40;;;;;;4980589;28;19924;-69
2021/06/30 09:32:55;;;;;;;;;;;23.20;59.40;;;;;;4971653;28;19922;-67
2021/06/30 09:35:24;;;;;;;;;;;23.20;59.50;;;;;;4986676;28;20000;-68
2021/06/30 09:37:50;;;;;;;;;;;23.20;59.40;;;;;;4999209;28;19925;-68
2021/06/30 09:40:16;;;;;;;;;;;23.20;59.50;;;;;;4999575;28;19921;-68
2021/06/30 09:42:41;;;;;;;;;;;23.20;59.50;;;;;;4981573;28;19921;-68
2021/06/30 09:45:17;;;;;;;;;;;23.10;59.40;;;;;;5004043;28;20202;-67
2021/06/30 09:47:43;;;;;;;;;;;23.20;59.60;;;;;;5002658;28;19924;-69
2021/06/30 09:50:08;;;;;;;;;;;23.20;60.00;;;;;;4994956;28;20004;-69
2021/06/30 09:52:37;;;;;;;;;;;23.20;60.20;;;;;;4995333;28;19917;-67
2021/06/30 09:55:02;;;;;;;;;;;23.20;60.40;;;;;;4998641;28;20305;-68
2021/06/30 09:57:27;;;;;;;;;;;23.20;60.50;;;;;;5004937;28;19953;-69
2021/06/30 09:59:53;;;;;;;;;;;23.20;60.50;;;;;;4988647;28;19913;-68
2021/06/30 10:02:19;;;;;;;;;;;23.20;60.40;;;;;;4983743;28;19960;-68
2021/06/30 10:04:44;;;;;;;;;;;23.20;60.40;;;;;;4995451;28;20292;-69
2021/06/30 10:07:11;;;;;;;;;;;23.30;60.50;;;;;;5000039;28;19980;-69
2021/06/30 10:09:41;;;;;;;;;;;23.30;60.60;;;;;;4995381;28;19968;-68
2021/06/30 10:12:07;;;;;;;;;;;23.30;60.60;;;;;;4995276;28;19980;-68
2021/06/30 10:14:33;;;;;;;;;;;23.30;60.80;;;;;;4991495;28;19957;-69
2021/06/30 10:16:58;;;;;;;;;;;23.30;60.60;;;;;;4985716;28;19924;-68
2021/06/30 10:19:24;;;;;;;;;;;23.20;60.50;;;;;;4985917;28;19977;-68
2021/06/30 10:21:49;;;;;;;;;;;23.30;60.60;;;;;;4990884;28;19928;-69
2021/06/30 10:24:15;;;;;;;;;;;23.20;60.40;;;;;;5002638;28;19914;-68
2021/06/30 10:26:41;;;;;;;;;;;23.20;60.60;;;;;;4995684;28;19933;-68
2021/06/30 10:29:06;;;;;;;;;;;23.30;60.60;;;;;;4986812;28;19921;-69
2021/06/30 10:31:34;;;;;;;;;;;23.30;61.20;;;;;;4985671;28;20345;-68
2021/06/30 10:34:01;;;;;;;;;;;23.30;60.30;;;;;;4987498;28;19918;-68
2021/06/30 10:36:46;;;;;;;;;;;23.30;60.50;;;;;;4994865;28;19918;-68
2021/06/30 10:39:11;;;;;;;;;;;23.30;60.50;;;;;;4986366;28;19949;-68
2021/06/30 10:41:38;;;;;;;;;;;23.30;60.60;;;;;;4986628;28;20012;-68
2021/06/30 10:44:07;;;;;;;;;;;23.20;60.60;;;;;;4994175;28;19921;-68
2021/06/30 10:46:32;;;;;;;;;;;23.30;60.60;;;;;;4998704;28;19921;-69
2021/06/30 10:49:13;;;;;;;;;;;23.30;60.60;;;;;;5005329;28;19921;-68
2021/06/30 10:51:39;;;;;;;;;;;23.30;60.60;;;;;;4987791;28;19969;-69
2021/06/30 10:54:24;;;;;;;;;;;23.30;60.60;;;;;;4983914;28;19965;-68
2021/06/30 10:56:52;;;;;;;;;;;23.20;60.60;;;;;;4994832;28;20000;-68
2021/06/30 10:59:17;;;;;;;;;;;23.30;60.60;;;;;;4942501;28;21396;-67
2021/06/30 11:02:09;;;;;;;;;;;23.20;60.50;;;;;;4982567;28;20288;-68
2021/06/30 11:04:34;;;;;;;;;;;23.30;60.50;;;;;;4981529;28;19941;-67
2021/06/30 11:07:20;;;;;;;;;;;23.30;60.60;;;;;;4991855;28;19930;-68
2021/06/30 11:09:45;;;;;;;;;;;23.30;60.60;;;;;;4997403;28;19952;-69
2021/06/30 11:12:11;;;;;;;;;;;23.20;60.50;;;;;;5005565;28;19945;-67
2021/06/30 11:14:37;;;;;;;;;;;23.30;61.10;;;;;;4980325;28;19913;-67
2021/06/30 11:17:03;;;;;;;;;;;23.20;60.50;;;;;;5004596;28;19949;-67
2021/06/30 11:19:31;;;;;;;;;;;23.30;60.50;;;;;;4970347;28;20372;-67
2021/06/30 11:22:01;;;;;;;;;;;23.30;60.60;;;;;;4980260;28;19945;-68
2021/06/30 11:24:36;;;;;;;;;;;23.30;60.60;;;;;;4990353;28;20005;-68
2021/06/30 11:27:26;;;;;;;;;;;23.30;60.60;;;;;;4981221;28;19918;-69
2021/06/30 11:29:56;;;;;;;;;;;23.20;60.50;;;;;;4972303;28;19918;-69
2021/06/30 11:32:31;;;;;;;;;;;23.30;60.70;;;;;;4975974;28;20369;-68
2021/06/30 11:34:56;;;;;;;;;;;23.20;60.60;;;;;;4996642;28;19921;-68
2021/06/30 11:37:22;;;;;;;;;;;23.30;60.70;;;;;;4983889;28;19976;-68
2021/06/30 11:39:49;;;;;;;;;;;23.20;60.70;;;;;;4978305;28;20392;-68
2021/06/30 11:42:14;;;;;;;;;;;23.20;60.80;;;;;;4964935;28;19922;-70
2021/06/30 11:44:40;;;;;;;;;;;23.30;60.80;;;;;;4961169;28;19925;-67
2021/06/30 11:47:06;;;;;;;;;;;23.30;60.80;;;;;;4972220;28;19922;-70
2021/06/30 11:49:31;;;;;;;;;;;23.30;60.80;;;;;;4964595;28;20309;-69
2021/06/30 11:52:00;;;;;;;;;;;23.20;60.70;;;;;;4980974;28;19914;-68
2021/06/30 11:54:26;;;;;;;;;;;23.30;60.30;;;;;;4994986;28;19967;-69
2021/06/30 11:56:53;;;;;;;;;;;23.30;60.50;;;;;;4991431;28;19982;-68
2021/06/30 11:59:22;;;;;;;;;;;23.30;60.50;;;;;;4987345;28;19933;-68
2021/06/30 12:01:48;;;;;;;;;;;23.30;61.20;;;;;;5003206;28;19918;-71
2021/06/30 12:04:23;;;;;;;;;;;23.30;61.60;;;;;;5004087;28;20020;-69
2021/06/30 12:06:49;;;;;;;;;;;23.30;61.30;;;;;;4999864;28;20399;-67
2021/06/30 12:09:18;;;;;;;;;;;23.30;61.00;;;;;;4986249;28;19918;-67
2021/06/30 12:11:45;;;;;;;;;;;23.30;60.80;;;;;;4973352;28;20222;-68
2021/06/30 12:14:14;;;;;;;;;;;23.30;60.60;;;;;;4984815;28;19973;-69
2021/06/30 12:16:47;;;;;;;;;;;23.30;60.60;;;;;;4991017;28;19918;-68
2021/06/30 12:19:13;;;;;;;;;;;23.30;60.40;;;;;;5001371;28;19996;-70
2021/06/30 12:21:39;;;;;;;;;;;23.30;60.20;;;;;;4980414;28;20005;-69
2021/06/30 12:24:11;;;;;;;;;;;23.30;60.10;;;;;;4968603;28;20360;-68
2021/06/30 12:26:36;;;;;;;;;;;23.30;59.80;;;;;;4983996;28;19925;-71
2021/06/30 12:29:02;;;;;;;;;;;23.30;59.80;;;;;;4962310;28;19918;-70
2021/06/30 12:31:27;;;;;;;;;;;23.30;59.60;;;;;;4976795;28;20372;-70
2021/06/30 12:33:53;;;;;;;;;;;23.30;59.50;;;;;;4966134;28;20133;-68
2021/06/30 12:36:22;;;;;;;;;;;23.30;59.30;;;;;;4972943;28;19982;-68
2021/06/30 12:38:47;;;;;;;;;;;23.30;59.40;;;;;;4974518;28;19914;-68
2021/06/30 12:41:13;;;;;;;;;;;23.30;59.40;;;;;;4998382;28;19922;-69
2021/06/30 12:43:38;;;;;;;;;;;23.30;59.30;;;;;;4974631;28;20014;-69
2021/06/30 12:46:04;;;;;;;;;;;23.30;59.20;;;;;;4980851;28;19914;-68
2021/06/30 12:48:32;;;;;;;;;;;23.30;59.10;;;;;;4972926;28;19953;-69
2021/06/30 12:51:07;;;;;;;;;;;23.30;59.20;;;;;;4975491;28;20332;-68
2021/06/30 12:53:36;;;;;;;;;;;23.20;59.00;;;;;;4968832;28;20001;-69
2021/06/30 12:56:05;;;;;;;;;;;23.20;58.90;;;;;;4974102;28;20367;-71
2021/06/30 12:58:44;;;;;;;;;;;23.30;58.90;;;;;;4972721;28;19918;-69
2021/06/30 13:01:10;;;;;;;;;;;23.30;59.00;;;;;;4977373;28;20316;-68
2021/06/30 13:03:46;;;;;;;;;;;23.30;59.20;;;;;;4970134;28;19956;-68
2021/06/30 13:06:13;;;;;;;;;;;23.30;59.30;;;;;;5001648;28;20621;-66
2021/06/30 13:08:39;;;;;;;;;;;23.20;60.10;;;;;;4991741;28;20367;-67
2021/06/30 13:11:09;;;;;;;;;;;23.20;60.00;;;;;;4990077;28;19913;-70
2021/06/30 13:13:35;;;;;;;;;;;23.20;59.90;;;;;;4971282;28;20511;-68
2021/06/30 13:16:07;;;;;;;;;;;23.20;59.80;;;;;;4978187;28;20036;-68
2021/06/30 13:18:42;;;;;;;;;;;23.20;59.50;;;;;;4976935;28;19918;-67
2021/06/30 13:21:07;;;;;;;;;;;23.20;59.60;;;;;;4987868;28;19929;-69
2021/06/30 13:23:37;;;;;;;;;;;23.20;59.70;;;;;;4982333;28;19915;-68
2021/06/30 13:26:10;;;;;;;;;;;23.20;59.50;;;;;;4967293;28;19918;-68
2021/06/30 13:34:19;;;;;;;;;;;23.20;59.70;;;;;;4995000;28;19924;-68
2021/06/30 13:36:45;;;;;;;;;;;23.20;59.60;;;;;;4983063;28;20347;-68
2021/06/30 13:39:10;;;;;;;;;;;23.20;59.40;;;;;;4984925;28;19925;-67
2021/06/30 13:41:36;;;;;;;;;;;23.20;60.40;;;;;;4984240;28;19928;-69
2021/06/30 13:44:02;;;;;;;;;;;23.20;60.60;;;;;;4984757;28;20308;-67
2021/06/30 13:46:27;;;;;;;;;;;23.20;61.10;;;;;;4984427;28;19925;-66
2021/06/30 13:48:55;;;;;;;;;;;23.20;61.10;;;;;;4984570;28;19961;-67
2021/06/30 13:51:21;;;;;;;;;;;23.20;61.20;;;;;;4983414;28;20300;-69
2021/06/30 13:53:46;;;;;;;;;;;23.20;61.10;;;;;;4984192;28;19918;-67
2021/06/30 13:56:12;;;;;;;;;;;23.20;61.30;;;;;;4980567;28;20916;-70
2021/06/30 13:58:40;;;;;;;;;;;23.20;61.50;;;;;;4987413;28;19917;-67
2021/06/30 14:01:06;;;;;;;;;;;23.20;61.70;;;;;;4980132;28;19929;-69
2021/06/30 14:03:32;;;;;;;;;;;23.20;61.90;;;;;;4967084;28;19914;-67
2021/06/30 14:05:58;;;;;;;;;;;23.10;62.20;;;;;;4985544;28;19926;-70
2021/06/30 14:08:23;;;;;;;;;;;23.10;62.60;;;;;;4972114;28;20466;-67
2021/06/30 14:10:49;;;;;;;;;;;23.10;62.20;;;;;;4989943;28;19913;-67
2021/06/30 14:13:15;;;;;;;;;;;23.20;62.40;;;;;;5000867;28;19924;-67
2021/06/30 14:15:40;;;;;;;;;;;23.20;62.50;;;;;;4986222;28;19997;-70
2021/06/30 14:18:06;;;;;;;;;;;23.20;62.60;;;;;;4979931;28;19952;-68